Time;durP1;ratioP1;P1;durP2;ratioP2;P2;SDS_P1;SDS_P2;PMS_P1;PMS_P2;Temp;Humidity;BMP_temperature;BMP_pressure;BME280_temperature;BME280_humidity;BME280_pressure;Samples;Min_cycle;Max_cycle;Signal;HPM_P1;HPM_P2
2021/01/10 00:00:30;;;;;;;0.00;0.00;;;;;;;;;;4912128;29;20694;-69
2021/01/10 00:02:56;;;;;;;0.00;0.00;;;;;;;;;;4907238;29;20206;-72
2021/01/10 00:05:28;;;;;;;0.20;0.20;;;;;;;;;;4909456;29;20209;-71
2021/01/10 00:07:55;;;;;;;0.07;0.07;;;;;;;;;;4906561;29;21504;-70
2021/01/10 00:10:22;;;;;;;0.17;0.17;;;;;;;;;;4899500;29;20222;-74
2021/01/10 00:12:49;;;;;;;0.00;0.00;;;;;;;;;;4907573;29;20203;-68
2021/01/10 00:15:16;;;;;;;0.37;0.37;;;;;;;;;;4905899;29;20519;-70
2021/01/10 00:17:44;;;;;;;0.10;0.10;;;;;;;;;;4912139;29;20219;-70
2021/01/10 00:20:11;;;;;;;0.00;0.00;;;;;;;;;;4908153;29;20247;-72
2021/01/10 00:22:38;;;;;;;0.00;0.00;;;;;;;;;;4906460;29;20191;-66
2021/01/10 00:25:08;;;;;;;0.00;0.00;;;;;;;;;;4903420;29;20281;-70
2021/01/10 00:27:35;;;;;;;0.00;0.00;;;;;;;;;;4893414;29;20235;-69
2021/01/10 00:30:02;;;;;;;0.10;0.10;;;;;;;;;;4882149;29;20226;-68
2021/01/10 00:32:30;;;;;;;0.10;0.10;;;;;;;;;;4888540;29;20521;-65
2021/01/10 00:34:56;;;;;;;0.00;0.00;;;;;;;;;;4888974;29;20668;-68
2021/01/10 00:37:24;;;;;;;0.00;0.00;;;;;;;;;;4890018;29;20188;-70
2021/01/10 00:39:51;;;;;;;0.00;0.00;;;;;;;;;;4889220;29;20215;-72
2021/01/10 00:42:18;;;;;;;0.10;0.10;;;;;;;;;;4888277;29;20196;-71
2021/01/10 00:44:48;;;;;;;0.00;0.00;;;;;;;;;;4890271;29;20299;-72
2021/01/10 00:47:18;;;;;;;0.87;0.87;;;;;;;;;;4891168;29;20225;-70
2021/01/10 00:49:48;;;;;;;0.10;0.10;;;;;;;;;;4888840;29;20199;-70
2021/01/10 00:52:15;;;;;;;0.10;0.10;;;;;;;;;;4874108;29;20202;-69
2021/01/10 00:54:41;;;;;;;1.90;1.90;;;;;;;;;;4887543;29;20302;-69
2021/01/10 00:57:08;;;;;;;0.00;0.00;;;;;;;;;;4887711;29;20282;-72
2021/01/10 00:59:34;;;;;;;0.00;0.00;;;;;;;;;;4886634;29;20202;-70
2021/01/10 01:02:01;;;;;;;0.00;0.00;;;;;;;;;;4885450;29;20192;-71
2021/01/10 01:04:28;;;;;;;0.00;0.00;;;;;;;;;;4882683;29;20264;-73
2021/01/10 01:06:54;;;;;;;0.00;0.00;;;;;;;;;;4886608;29;20189;-73
2021/01/10 01:09:21;;;;;;;0.37;0.37;;;;;;;;;;4882780;29;20206;-72
2021/01/10 01:11:47;;;;;;;0.00;0.00;;;;;;;;;;4886694;29;20191;-72
2021/01/10 01:14:15;;;;;;;0.00;0.00;;;;;;;;;;4887971;29;20230;-70
2021/01/10 01:16:43;;;;;;;0.10;0.10;;;;;;;;;;4885893;29;20296;-69
2021/01/10 01:19:10;;;;;;;0.00;0.00;;;;;;;;;;4888580;29;20200;-69
2021/01/10 01:21:37;;;;;;;0.00;0.00;;;;;;;;;;4886434;29;20226;-70
2021/01/10 01:24:05;;;;;;;0.00;0.00;;;;;;;;;;4880353;29;20295;-71
2021/01/10 01:26:32;;;;;;;0.03;0.03;;;;;;;;;;4891705;29;20321;-69
2021/01/10 01:28:58;;;;;;;0.00;0.00;;;;;;;;;;4903481;29;20196;-69
2021/01/10 01:31:27;;;;;;;0.27;0.27;;;;;;;;;;4908739;29;20727;-71
2021/01/10 01:33:53;;;;;;;0.00;0.00;;;;;;;;;;4909291;29;20234;-69
2021/01/10 01:36:24;;;;;;;0.00;0.00;;;;;;;;;;4907489;29;20210;-71
2021/01/10 01:38:55;;;;;;;0.73;0.27;;;;;;;;;;4903192;29;20269;-70
2021/01/10 01:41:25;;;;;;;0.00;0.00;;;;;;;;;;4901982;29;20198;-70
2021/01/10 01:43:52;;;;;;;0.00;0.00;;;;;;;;;;4907872;29;20256;-67
2021/01/10 01:46:32;;;;;;;0.03;0.03;;;;;;;;;;4904971;29;20305;-64
2021/01/10 01:48:59;;;;;;;0.13;0.13;;;;;;;;;;4907840;29;20245;-66
2021/01/10 01:51:27;;;;;;;1.07;0.97;;;;;;;;;;4905954;29;20206;-66
2021/01/10 01:53:54;;;;;;;0.00;0.00;;;;;;;;;;4903408;29;20214;-66
2021/01/10 14:06:21;;;;;;;0.13;0.13;;;;;;;;;;5065675;28;20582;-59
2021/01/10 14:08:49;;;;;;;2.60;0.60;;;;;;;;;;5062707;28;20189;-66
2021/01/10 14:11:23;;;;;;;0.37;0.37;;;;;;;;;;5062048;28;20328;-60
2021/01/10 14:13:50;;;;;;;0.73;0.50;;;;;;;;;;5062730;28;20214;-63
2021/01/10 14:16:21;;;;;;;0.00;0.00;;;;;;;;;;5062093;28;20229;-62
2021/01/10 14:18:48;;;;;;;1.30;0.53;;;;;;;;;;5061536;28;20188;-62
2021/01/10 14:21:33;;;;;;;0.10;0.10;;;;;;;;;;5062795;28;20617;-63
2021/01/10 14:24:00;;;;;;;1.27;0.57;;;;;;;;;;5057013;28;20192;-63
2021/01/10 14:26:27;;;;;;;1.40;0.20;;;;;;;;;;5061944;28;20183;-61
2021/01/10 14:28:55;;;;;;;0.13;0.13;;;;;;;;;;5062403;28;20181;-64
2021/01/10 14:31:22;;;;;;;5.27;1.03;;;;;;;;;;5061820;28;20297;-60
2021/01/10 14:33:48;;;;;;;0.20;0.20;;;;;;;;;;5061392;28;20213;-67
2021/01/10 14:36:16;;;;;;;0.30;0.27;;;;;;;;;;5061474;28;20191;-62
2021/01/10 14:38:44;;;;;;;0.00;0.00;;;;;;;;;;5061678;28;20191;-61
2021/01/10 14:41:21;;;;;;;0.20;0.20;;;;;;;;;;5061352;28;20187;-62
2021/01/10 14:43:47;;;;;;;0.07;0.07;;;;;;;;;;5061655;28;20183;-61
2021/01/10 14:46:24;;;;;;;0.43;0.27;;;;;;;;;;5061669;28;20246;-66
2021/01/10 14:48:52;;;;;;;1.30;1.00;;;;;;;;;;5060926;28;20187;-61
2021/01/10 14:51:22;;;;;;;0.30;0.30;;;;;;;;;;5061258;28;20183;-66
2021/01/10 14:53:53;;;;;;;0.07;0.07;;;;;;;;;;5060157;28;20289;-69
2021/01/10 14:56:21;;;;;;;5.30;0.63;;;;;;;;;;5060970;28;20178;-63
2021/01/10 14:58:48;;;;;;;1.90;0.90;;;;;;;;;;5060999;28;20498;-65
2021/01/10 15:01:16;;;;;;;0.33;0.27;;;;;;;;;;5061301;28;20226;-62
2021/01/10 15:03:46;;;;;;;1.60;0.63;;;;;;;;;;5061047;28;20271;-65
2021/01/10 15:06:14;;;;;;;0.00;0.00;;;;;;;;;;5060898;28;20191;-60
2021/01/10 15:08:41;;;;;;;1.47;0.33;;;;;;;;;;5060345;28;20183;-59
2021/01/10 15:11:08;;;;;;;5.13;1.27;;;;;;;;;;5066819;28;20203;-60
2021/01/10 15:13:34;;;;;;;0.77;0.17;;;;;;;;;;5065474;28;20171;-62
2021/01/10 15:16:02;;;;;;;1.60;1.50;;;;;;;;;;5056416;28;20181;-62
2021/01/10 15:18:28;;;;;;;1.37;1.10;;;;;;;;;;5047732;28;20730;-66
2021/01/10 15:20:56;;;;;;;0.93;0.20;;;;;;;;;;5054203;28;20183;-60
2021/01/10 15:23:23;;;;;;;0.10;0.10;;;;;;;;;;5049273;28;20175;-62
2021/01/10 15:25:49;;;;;;;0.63;0.63;;;;;;;;;;5046637;28;20216;-65
2021/01/10 15:28:17;;;;;;;1.10;0.40;;;;;;;;;;5046546;28;20175;-61
2021/01/10 15:30:43;;;;;;;0.10;0.10;;;;;;;;;;5047165;28;20269;-61
2021/01/10 15:33:11;;;;;;;0.50;0.50;;;;;;;;;;5047233;28;20554;-62
2021/01/10 15:35:42;;;;;;;0.63;0.20;;;;;;;;;;5046903;28;20283;-64
2021/01/10 15:38:10;;;;;;;0.07;0.07;;;;;;;;;;5049273;28;20677;-65
2021/01/10 15:40:38;;;;;;;0.00;0.00;;;;;;;;;;5047541;28;20172;-63
2021/01/10 15:43:06;;;;;;;2.40;0.77;;;;;;;;;;5053731;28;20291;-63
2021/01/10 15:45:35;;;;;;;0.00;0.00;;;;;;;;;;5046496;28;20708;-62
2021/01/10 15:48:02;;;;;;;0.37;0.37;;;;;;;;;;5052102;28;20181;-60
2021/01/10 15:50:28;;;;;;;1.93;1.13;;;;;;;;;;5047047;28;20241;-66
2021/01/10 15:52:56;;;;;;;0.00;0.00;;;;;;;;;;5046843;28;20176;-61
2021/01/10 15:55:23;;;;;;;0.10;0.10;;;;;;;;;;5046759;28;20188;-62
2021/01/10 15:57:51;;;;;;;0.00;0.00;;;;;;;;;;5046814;28;20179;-62
2021/01/10 16:00:18;;;;;;;0.20;0.20;;;;;;;;;;5046781;28;20660;-61
2021/01/10 16:02:45;;;;;;;2.43;1.40;;;;;;;;;;5046204;28;20211;-62
2021/01/10 16:05:13;;;;;;;1.60;1.30;;;;;;;;;;5046108;28;20712;-63
2021/01/10 16:07:41;;;;;;;1.50;0.93;;;;;;;;;;5045373;28;20191;-60
2021/01/10 16:10:09;;;;;;;1.33;0.53;;;;;;;;;;5046590;28;20194;-62
2021/01/10 16:12:36;;;;;;;13.20;2.47;;;;;;;;;;5046179;28;20182;-61
2021/01/10 16:15:05;;;;;;;0.60;0.30;;;;;;;;;;5045962;28;20195;-61
2021/01/10 16:17:32;;;;;;;0.00;0.00;;;;;;;;;;5045910;28;20180;-63
2021/01/10 16:19:59;;;;;;;3.43;1.73;;;;;;;;;;5038676;28;20184;-66
2021/01/10 16:22:30;;;;;;;0.60;0.27;;;;;;;;;;5044854;28;20266;-60
2021/01/10 16:25:03;;;;;;;0.50;0.40;;;;;;;;;;5046647;28;20218;-61
2021/01/10 16:27:30;;;;;;;0.37;0.37;;;;;;;;;;5045295;28;20189;-62
2021/01/10 16:29:57;;;;;;;0.30;0.30;;;;;;;;;;5045885;28;20308;-62
2021/01/10 16:32:24;;;;;;;8.80;1.00;;;;;;;;;;5045879;28;20234;-64
2021/01/10 16:34:52;;;;;;;0.97;0.97;;;;;;;;;;5046238;28;20275;-60
2021/01/10 16:37:25;;;;;;;0.30;0.30;;;;;;;;;;5045416;28;20382;-67
2021/01/10 16:39:53;;;;;;;0.00;0.00;;;;;;;;;;5045086;28;20672;-61
2021/01/10 16:42:20;;;;;;;2.20;0.83;;;;;;;;;;5045570;28;20192;-62
2021/01/10 16:44:50;;;;;;;0.40;0.40;;;;;;;;;;5045465;28;20567;-61
2021/01/10 16:47:17;;;;;;;0.20;0.20;;;;;;;;;;5045704;28;20537;-61
2021/01/10 16:49:43;;;;;;;0.37;0.33;;;;;;;;;;5045087;28;20185;-62
2021/01/10 16:52:10;;;;;;;1.40;0.33;;;;;;;;;;5045489;28;20184;-62
2021/01/10 16:54:38;;;;;;;0.40;0.40;;;;;;;;;;5045790;28;20171;-61
2021/01/10 16:57:05;;;;;;;0.00;0.00;;;;;;;;;;5045074;28;20530;-63
2021/01/10 16:59:31;;;;;;;1.30;0.50;;;;;;;;;;5045255;28;20180;-61
2021/01/10 17:01:58;;;;;;;0.10;0.10;;;;;;;;;;5045421;28;20184;-66
2021/01/10 17:04:25;;;;;;;0.53;0.20;;;;;;;;;;5044752;28;20243;-62
2021/01/10 17:06:52;;;;;;;0.23;0.23;;;;;;;;;;5045065;28;20233;-61
2021/01/10 17:09:19;;;;;;;0.00;0.00;;;;;;;;;;5044079;28;20179;-65
2021/01/10 17:11:47;;;;;;;0.20;0.20;;;;;;;;;;5045520;28;20587;-64
2021/01/10 17:14:18;;;;;;;0.33;0.33;;;;;;;;;;5045050;28;20182;-61
2021/01/10 17:16:51;;;;;;;0.00;0.00;;;;;;;;;;5047150;28;20176;-62
2021/01/10 17:19:18;;;;;;;0.77;0.77;;;;;;;;;;5046218;28;20234;-61
2021/01/10 17:21:47;;;;;;;5.43;2.00;;;;;;;;;;5041842;28;20271;-60
2021/01/10 17:24:14;;;;;;;0.10;0.10;;;;;;;;;;5048280;28;20211;-59
2021/01/10 17:26:42;;;;;;;2.63;1.90;;;;;;;;;;5047936;28;20188;-59
2021/01/10 17:29:08;;;;;;;0.00;0.00;;;;;;;;;;5044874;28;20628;-66
2021/01/10 17:31:35;;;;;;;2.93;0.83;;;;;;;;;;5044277;28;20188;-61
2021/01/10 17:34:02;;;;;;;0.00;0.00;;;;;;;;;;5043732;28;20607;-64
2021/01/10 17:36:35;;;;;;;0.83;0.63;;;;;;;;;;5044743;28;20282;-65
2021/01/10 17:39:03;;;;;;;0.07;0.07;;;;;;;;;;5044680;28;20621;-60
2021/01/10 17:41:31;;;;;;;0.10;0.10;;;;;;;;;;5044691;28;20195;-62
2021/01/10 17:43:58;;;;;;;0.30;0.30;;;;;;;;;;5044506;28;20555;-63
2021/01/10 17:46:25;;;;;;;0.63;0.63;;;;;;;;;;5051036;28;20192;-62
2021/01/10 17:48:54;;;;;;;0.07;0.07;;;;;;;;;;5046182;28;20262;-62
2021/01/10 17:51:21;;;;;;;0.57;0.57;;;;;;;;;;5032884;28;20275;-63
2021/01/10 17:53:47;;;;;;;0.83;0.23;;;;;;;;;;5028434;28;20215;-64
2021/01/10 17:56:14;;;;;;;0.10;0.10;;;;;;;;;;5036617;28;20194;-65
2021/01/10 17:58:43;;;;;;;0.30;0.30;;;;;;;;;;5033183;28;20183;-64
2021/01/10 18:01:10;;;;;;;0.60;0.60;;;;;;;;;;5034211;28;20218;-65
2021/01/10 18:03:36;;;;;;;0.00;0.00;;;;;;;;;;5038335;28;20230;-63
2021/01/10 18:06:03;;;;;;;0.10;0.10;;;;;;;;;;5039752;28;20336;-62
2021/01/10 18:08:30;;;;;;;0.70;0.40;;;;;;;;;;5040136;28;20776;-66
2021/01/10 18:10:56;;;;;;;0.20;0.20;;;;;;;;;;5037863;28;20183;-67
2021/01/10 18:13:23;;;;;;;0.57;0.23;;;;;;;;;;5034973;28;20187;-64
2021/01/10 18:15:50;;;;;;;0.00;0.00;;;;;;;;;;5038140;28;20198;-65
2021/01/10 18:18:16;;;;;;;0.87;0.17;;;;;;;;;;5034804;28;20225;-65
2021/01/10 18:20:43;;;;;;;0.00;0.00;;;;;;;;;;5038213;28;20546;-64
2021/01/10 18:23:10;;;;;;;0.10;0.10;;;;;;;;;;5040107;28;20246;-66
2021/01/10 18:25:36;;;;;;;1.63;1.53;;;;;;;;;;5040938;28;20679;-62
2021/01/10 18:28:04;;;;;;;0.20;0.20;;;;;;;;;;5039005;28;20190;-63
2021/01/10 18:30:30;;;;;;;0.00;0.00;;;;;;;;;;5035932;28;20210;-63
2021/01/10 18:32:57;;;;;;;0.33;0.20;;;;;;;;;;5038592;28;20906;-65
2021/01/10 18:35:24;;;;;;;0.10;0.10;;;;;;;;;;5040535;28;20388;-63
2021/01/10 18:37:51;;;;;;;0.60;0.60;;;;;;;;;;5037857;28;20180;-65
2021/01/10 18:40:22;;;;;;;0.07;0.07;;;;;;;;;;5041299;28;20180;-65
2021/01/10 18:42:48;;;;;;;0.00;0.00;;;;;;;;;;5038933;28;20183;-70
2021/01/10 18:45:15;;;;;;;0.00;0.00;;;;;;;;;;5039562;28;20222;-65
2021/01/10 18:47:57;;;;;;;0.57;0.30;;;;;;;;;;5035140;28;20235;-65
2021/01/10 18:50:23;;;;;;;0.40;0.40;;;;;;;;;;5038265;28;20218;-63
2021/01/10 18:52:50;;;;;;;0.10;0.10;;;;;;;;;;5043735;28;20211;-66
2021/01/10 18:55:17;;;;;;;0.00;0.00;;;;;;;;;;5043367;28;20176;-66
2021/01/10 18:57:44;;;;;;;0.10;0.10;;;;;;;;;;5040543;28;20176;-63
2021/01/10 19:00:13;;;;;;;0.10;0.10;;;;;;;;;;5042726;28;20187;-64
2021/01/10 19:02:40;;;;;;;0.77;0.67;;;;;;;;;;5044311;28;20179;-66
2021/01/10 19:05:07;;;;;;;0.00;0.00;;;;;;;;;;5039337;28;20246;-66
2021/01/10 19:07:38;;;;;;;0.10;0.10;;;;;;;;;;5046097;28;21594;-64
2021/01/10 19:10:06;;;;;;;0.77;0.77;;;;;;;;;;5042348;28;20272;-67
2021/01/10 19:12:34;;;;;;;0.97;0.97;;;;;;;;;;5043498;28;20548;-67
2021/01/10 19:15:01;;;;;;;0.10;0.10;;;;;;;;;;5039817;28;20215;-64
2021/01/10 19:17:28;;;;;;;0.00;0.00;;;;;;;;;;5042552;28;20279;-68
2021/01/10 19:19:54;;;;;;;0.10;0.10;;;;;;;;;;5048667;28;20661;-69
2021/01/10 19:22:21;;;;;;;0.00;0.00;;;;;;;;;;5042518;28;20267;-65
2021/01/10 19:24:48;;;;;;;0.83;0.73;;;;;;;;;;5043336;28;20239;-66
2021/01/10 19:27:14;;;;;;;11.23;0.83;;;;;;;;;;5041300;28;20191;-70
2021/01/10 19:29:43;;;;;;;0.20;0.20;;;;;;;;;;5039216;28;20188;-63
2021/01/10 19:32:10;;;;;;;1.80;1.03;;;;;;;;;;5046747;28;20215;-66
2021/01/10 19:34:38;;;;;;;0.33;0.30;;;;;;;;;;5044470;28;20698;-64
2021/01/10 19:37:06;;;;;;;0.00;0.00;;;;;;;;;;5041711;28;20611;-69
2021/01/10 19:39:32;;;;;;;0.00;0.00;;;;;;;;;;5045953;28;20823;-66
2021/01/10 19:42:00;;;;;;;0.23;0.23;;;;;;;;;;5043717;28;20217;-71
2021/01/10 19:44:27;;;;;;;0.13;0.13;;;;;;;;;;5042473;28;20217;-64
2021/01/10 19:46:54;;;;;;;0.63;0.63;;;;;;;;;;5047139;28;20182;-66
2021/01/10 19:49:21;;;;;;;0.33;0.33;;;;;;;;;;5046301;28;20190;-66
2021/01/10 19:51:49;;;;;;;2.83;0.30;;;;;;;;;;5044632;28;20190;-65
2021/01/10 19:54:15;;;;;;;0.63;0.20;;;;;;;;;;5039239;28;20703;-65
2021/01/10 19:56:42;;;;;;;0.00;0.00;;;;;;;;;;5041745;28;20775;-66
2021/01/10 19:59:12;;;;;;;0.00;0.00;;;;;;;;;;5039747;28;20195;-71
2021/01/10 20:01:41;;;;;;;0.00;0.00;;;;;;;;;;5042755;28;20184;-71
2021/01/10 20:04:08;;;;;;;0.00;0.00;;;;;;;;;;5042274;28;20258;-65
2021/01/10 20:06:37;;;;;;;0.00;0.00;;;;;;;;;;5041320;28;20183;-70
2021/01/10 20:09:04;;;;;;;0.83;0.63;;;;;;;;;;5043001;28;20521;-65
2021/01/10 20:11:31;;;;;;;0.20;0.20;;;;;;;;;;5043982;28;20176;-62
2021/01/10 20:13:58;;;;;;;0.90;0.83;;;;;;;;;;5037241;28;20229;-64
2021/01/10 20:16:35;;;;;;;0.10;0.10;;;;;;;;;;5041966;28;20955;-69
2021/01/10 20:19:10;;;;;;;0.10;0.10;;;;;;;;;;5042426;28;20190;-66
2021/01/10 20:21:37;;;;;;;0.00;0.00;;;;;;;;;;5041021;28;20280;-63
2021/01/10 20:24:05;;;;;;;0.00;0.00;;;;;;;;;;5042005;28;20208;-64
2021/01/10 20:26:39;;;;;;;0.00;0.00;;;;;;;;;;5041957;28;20192;-65
2021/01/10 20:29:06;;;;;;;0.00;0.00;;;;;;;;;;5037415;28;20187;-68
2021/01/10 20:31:33;;;;;;;0.10;0.10;;;;;;;;;;5041120;28;20673;-65
2021/01/10 20:34:00;;;;;;;0.20;0.20;;;;;;;;;;5042349;28;20284;-68
2021/01/10 20:36:28;;;;;;;0.30;0.17;;;;;;;;;;5044515;28;20191;-63
2021/01/10 20:38:55;;;;;;;0.23;0.23;;;;;;;;;;5041225;28;20180;-65
2021/01/10 20:41:22;;;;;;;0.10;0.10;;;;;;;;;;5041584;28;20191;-63
2021/01/10 20:43:49;;;;;;;0.00;0.00;;;;;;;;;;5040757;28;20248;-64
2021/01/10 20:46:42;;;;;;;0.07;0.07;;;;;;;;;;5042845;28;20294;-65
2021/01/10 20:49:09;;;;;;;0.50;0.50;;;;;;;;;;5039951;28;20225;-65
2021/01/10 20:51:39;;;;;;;0.43;0.43;;;;;;;;;;5036530;28;20275;-64
2021/01/10 20:54:06;;;;;;;0.17;0.17;;;;;;;;;;5041386;28;20543;-64
2021/01/10 20:56:33;;;;;;;2.07;1.10;;;;;;;;;;5040067;28;20646;-64
2021/01/10 20:59:00;;;;;;;0.10;0.10;;;;;;;;;;5035220;28;20195;-67
2021/01/10 21:01:27;;;;;;;0.00;0.00;;;;;;;;;;5038924;28;20179;-63
2021/01/10 21:04:00;;;;;;;0.07;0.07;;;;;;;;;;5042521;28;20183;-64
2021/01/10 21:06:40;;;;;;;0.10;0.10;;;;;;;;;;5041697;28;20195;-62
2021/01/10 21:09:11;;;;;;;0.00;0.00;;;;;;;;;;5041509;28;20187;-65
2021/01/10 21:11:38;;;;;;;0.23;0.23;;;;;;;;;;5039329;28;20188;-62
2021/01/10 21:14:05;;;;;;;0.00;0.00;;;;;;;;;;5042132;28;20751;-67
2021/01/10 21:16:34;;;;;;;0.87;0.87;;;;;;;;;;5043151;28;20221;-62
2021/01/10 21:19:01;;;;;;;0.00;0.00;;;;;;;;;;5040052;28;20274;-64
2021/01/10 21:21:40;;;;;;;0.43;0.20;;;;;;;;;;5040638;28;20422;-65
2021/01/10 21:24:07;;;;;;;0.53;0.53;;;;;;;;;;5041221;28;20238;-61
2021/01/10 21:26:34;;;;;;;5.93;2.63;;;;;;;;;;5040858;28;20638;-64
2021/01/10 21:29:01;;;;;;;0.10;0.10;;;;;;;;;;5041957;28;20244;-64
2021/01/10 21:31:28;;;;;;;0.00;0.00;;;;;;;;;;5040851;28;20773;-63
2021/01/10 21:33:55;;;;;;;1.10;0.57;;;;;;;;;;5040088;28;20333;-66
2021/01/10 21:36:34;;;;;;;0.07;0.07;;;;;;;;;;5041951;28;20180;-66
2021/01/10 21:39:04;;;;;;;0.17;0.17;;;;;;;;;;5038715;28;20191;-64
2021/01/10 21:41:31;;;;;;;0.40;0.40;;;;;;;;;;5040085;28;20191;-64
2021/01/10 21:44:02;;;;;;;3.90;1.73;;;;;;;;;;5041505;28;20282;-62
2021/01/10 21:46:29;;;;;;;0.00;0.00;;;;;;;;;;5038286;28;20873;-62
2021/01/10 21:48:56;;;;;;;0.00;0.00;;;;;;;;;;5035930;28;20336;-64
2021/01/10 21:51:28;;;;;;;1.13;1.13;;;;;;;;;;5038880;28;20645;-62
2021/01/10 21:53:55;;;;;;;0.00;0.00;;;;;;;;;;5036663;28;20191;-63
2021/01/10 21:56:23;;;;;;;0.17;0.17;;;;;;;;;;5040110;28;20190;-64
2021/01/10 21:58:50;;;;;;;0.00;0.00;;;;;;;;;;5040984;28;20305;-67
2021/01/10 22:01:17;;;;;;;0.00;0.00;;;;;;;;;;5040412;28;20654;-61
2021/01/10 22:03:45;;;;;;;0.00;0.00;;;;;;;;;;5038597;28;20194;-62
2021/01/10 22:06:15;;;;;;;0.00;0.00;;;;;;;;;;5054369;28;20233;-62
2021/01/10 22:08:43;;;;;;;0.00;0.00;;;;;;;;;;5038925;28;20205;-64
2021/01/10 22:11:16;;;;;;;0.00;0.00;;;;;;;;;;5039392;28;20180;-68
2021/01/10 22:13:44;;;;;;;0.00;0.00;;;;;;;;;;5036730;28;20238;-64
2021/01/10 22:16:15;;;;;;;0.20;0.20;;;;;;;;;;5037203;28;20244;-63
2021/01/10 22:18:42;;;;;;;0.10;0.10;;;;;;;;;;5036632;28;20197;-63
2021/01/10 22:21:09;;;;;;;0.43;0.37;;;;;;;;;;5034535;28;20190;-64
2021/01/10 22:23:36;;;;;;;0.00;0.00;;;;;;;;;;5036709;28;20655;-65
2021/01/10 22:26:03;;;;;;;0.00;0.00;;;;;;;;;;5039001;28;20229;-62
2021/01/10 22:28:30;;;;;;;0.00;0.00;;;;;;;;;;5045370;28;20182;-65
2021/01/10 22:30:57;;;;;;;0.00;0.00;;;;;;;;;;5044012;28;20184;-61
2021/01/10 22:33:24;;;;;;;0.10;0.10;;;;;;;;;;5041989;28;20637;-65
2021/01/10 22:35:51;;;;;;;0.00;0.00;;;;;;;;;;5037435;28;20193;-65
2021/01/10 22:38:18;;;;;;;2.37;0.90;;;;;;;;;;5037108;28;20664;-64
2021/01/10 22:40:44;;;;;;;0.00;0.00;;;;;;;;;;5046362;28;21081;-62
2021/01/10 22:43:11;;;;;;;4.53;0.87;;;;;;;;;;5045700;28;20183;-62
2021/01/10 22:45:38;;;;;;;0.00;0.00;;;;;;;;;;5047654;28;20224;-63
2021/01/10 22:48:04;;;;;;;0.00;0.00;;;;;;;;;;5058419;28;20187;-61
2021/01/10 22:50:31;;;;;;;0.00;0.00;;;;;;;;;;5037447;28;20197;-60
2021/01/10 22:52:58;;;;;;;1.43;0.97;;;;;;;;;;5045827;28;20190;-68
2021/01/10 22:55:25;;;;;;;0.00;0.00;;;;;;;;;;5050008;28;20195;-63
2021/01/10 22:57:53;;;;;;;0.20;0.20;;;;;;;;;;5048509;28;20180;-61
2021/01/10 23:00:20;;;;;;;0.00;0.00;;;;;;;;;;5046080;28;20308;-66
2021/01/10 23:02:47;;;;;;;0.00;0.00;;;;;;;;;;5043569;28;20663;-62
2021/01/10 23:05:14;;;;;;;0.00;0.00;;;;;;;;;;5043508;28;20246;-62
2021/01/10 23:07:45;;;;;;;0.10;0.10;;;;;;;;;;5043277;28;20229;-61
2021/01/10 23:10:12;;;;;;;0.00;0.00;;;;;;;;;;5043381;28;20290;-61
2021/01/10 23:12:40;;;;;;;0.00;0.00;;;;;;;;;;5045173;28;20178;-63
2021/01/10 23:15:09;;;;;;;0.43;0.43;;;;;;;;;;5046508;28;20263;-61
2021/01/10 23:17:36;;;;;;;0.07;0.07;;;;;;;;;;5050249;28;20236;-62
2021/01/10 23:20:08;;;;;;;0.13;0.10;;;;;;;;;;5042541;28;20629;-61
2021/01/10 23:22:35;;;;;;;0.00;0.00;;;;;;;;;;5044848;28;20197;-68
2021/01/10 23:25:02;;;;;;;0.20;0.20;;;;;;;;;;5043422;28;20332;-62
2021/01/10 23:27:29;;;;;;;0.00;0.00;;;;;;;;;;5043669;28;20211;-63
2021/01/10 23:29:55;;;;;;;0.20;0.20;;;;;;;;;;5048602;28;20275;-63
2021/01/10 23:32:22;;;;;;;0.00;0.00;;;;;;;;;;5046140;28;20638;-62
2021/01/10 23:34:49;;;;;;;0.03;0.03;;;;;;;;;;5042752;28;20237;-63
2021/01/10 23:37:16;;;;;;;0.00;0.00;;;;;;;;;;5040210;28;20191;-65
2021/01/10 23:39:42;;;;;;;0.00;0.00;;;;;;;;;;5042987;28;20180;-63
2021/01/10 23:42:09;;;;;;;0.00;0.00;;;;;;;;;;5039920;28;20180;-63
2021/01/10 23:44:36;;;;;;;0.33;0.33;;;;;;;;;;5041607;28;20214;-64
2021/01/10 23:47:02;;;;;;;0.00;0.00;;;;;;;;;;5039374;28;20308;-63
2021/01/10 23:49:29;;;;;;;0.30;0.30;;;;;;;;;;5038921;28;20280;-64
2021/01/10 23:51:56;;;;;;;0.57;0.43;;;;;;;;;;5043483;28;20228;-65
2021/01/10 23:54:23;;;;;;;0.00;0.00;;;;;;;;;;5042564;28;21553;-62
2021/01/10 23:56:50;;;;;;;0.00;0.00;;;;;;;;;;5044331;28;20468;-63
2021/01/10 23:59:19;;;;;;;0.00;0.00;;;;;;;;;;5041799;28;20214;-61
